createdAt,value
2022-11-29T00:01:16.526Z,4.08
2022-11-29T00:03:44.694Z,3.98
2022-11-29T00:06:14.437Z,3.98
2022-11-29T00:08:42.453Z,4.00
2022-11-29T00:11:14.012Z,4.04
2022-11-29T00:13:41.981Z,4.07
2022-11-29T00:16:12.138Z,4.07
2022-11-29T00:18:39.823Z,3.97
2022-11-29T00:21:08.600Z,3.99
2022-11-29T00:23:36.824Z,3.91
2022-11-29T00:26:05.505Z,3.91
2022-11-29T00:28:34.958Z,3.98
2022-11-29T00:31:02.665Z,3.97
2022-11-29T00:33:30.306Z,3.86
2022-11-29T00:36:02.309Z,3.92
2022-11-29T00:38:29.987Z,3.94
2022-11-29T00:40:57.612Z,3.88
2022-11-29T00:43:25.255Z,3.93
2022-11-29T00:45:54.312Z,3.90
2022-11-29T00:48:22.083Z,3.87
2022-11-29T00:50:49.765Z,3.87
2022-11-29T00:53:17.529Z,3.82
2022-11-29T00:55:45.280Z,3.83
2022-11-29T00:58:12.946Z,3.83
2022-11-29T01:00:40.635Z,3.94
2022-11-29T01:03:09.675Z,3.83
2022-11-29T01:05:37.364Z,3.88
2022-11-29T01:08:05.220Z,3.88
2022-11-29T01:10:33.474Z,3.76
2022-11-29T01:13:01.187Z,3.78
2022-11-29T01:15:29.473Z,3.86
2022-11-29T01:17:57.111Z,3.88
2022-11-29T01:20:26.294Z,3.88
2022-11-29T01:22:54.120Z,3.77
2022-11-29T01:25:21.758Z,3.83
2022-11-29T01:27:49.369Z,3.89
2022-11-29T01:30:17.251Z,3.89
2022-11-29T01:32:44.915Z,3.84
2022-11-29T01:35:12.530Z,3.87
2022-11-29T01:37:41.620Z,3.89
2022-11-29T01:40:09.936Z,3.92
2022-11-29T01:42:37.636Z,3.90
2022-11-29T01:45:16.136Z,3.93
2022-11-29T01:47:47.591Z,4.00
2022-11-29T01:50:15.520Z,3.88
2022-11-29T01:52:45.347Z,3.95
2022-11-29T01:55:13.770Z,3.90
2022-11-29T01:57:42.567Z,3.96
2022-11-29T02:00:12.891Z,3.88
2022-11-29T02:02:45.240Z,4.01
2022-11-29T02:05:15.808Z,3.94
2022-11-29T02:07:47.352Z,4.03
2022-11-29T02:10:16.408Z,3.90
2022-11-29T02:12:54.413Z,3.89
2022-11-29T02:15:43.341Z,3.92
2022-11-29T02:18:14.697Z,3.97
2022-11-29T02:21:17.446Z,3.96
2022-11-29T02:24:16.071Z,3.84
2022-11-29T02:27:03.570Z,3.80
2022-11-29T02:29:48.402Z,3.87
2022-11-29T02:32:35.244Z,3.92
2022-11-29T02:35:17.639Z,3.96
2022-11-29T02:38:04.647Z,3.95
2022-11-29T02:40:54.725Z,3.88
2022-11-29T02:44:07.418Z,3.97
2022-11-29T02:46:48.069Z,4.01
2022-11-29T02:49:28.550Z,4.04
2022-11-29T02:52:01.786Z,4.04
2022-11-29T02:54:37.673Z,3.96
2022-11-29T02:57:15.524Z,4.07
2022-11-29T02:59:51.756Z,4.06
2022-11-29T03:02:28.320Z,4.07
2022-11-29T03:05:04.423Z,3.96
2022-11-29T03:07:40.170Z,3.91
2022-11-29T03:10:18.920Z,3.96
2022-11-29T03:12:50.005Z,3.99
2022-11-29T03:15:28.233Z,4.06
2022-11-29T03:18:21.146Z,3.92
2022-11-29T03:21:05.395Z,4.01
2022-11-29T03:23:38.876Z,3.83
2022-11-29T03:26:11.536Z,3.77
2022-11-29T03:28:44.484Z,3.83
2022-11-29T03:31:17.193Z,3.86
2022-11-29T03:33:52.431Z,4.00
2022-11-29T03:36:34.656Z,3.92
2022-11-29T03:39:06.319Z,3.96
2022-11-29T03:41:40.234Z,3.99
2022-11-29T03:44:14.013Z,4.06
2022-11-29T03:46:49.199Z,4.07
2022-11-29T03:49:21.813Z,3.97
2022-11-29T03:52:01.075Z,3.96
2022-11-29T03:54:36.043Z,3.97
2022-11-29T03:57:04.554Z,3.98
2022-11-29T03:59:56.211Z,4.01
2022-11-29T04:03:06.476Z,3.96
2022-11-29T04:06:03.341Z,3.93
2022-11-29T04:09:00.962Z,3.88
2022-11-29T04:12:05.072Z,4.01
2022-11-29T04:14:41.598Z,3.95
2022-11-29T04:17:58.707Z,4.00
2022-11-29T04:20:51.959Z,4.04
2022-11-29T04:23:48.166Z,3.99
2022-11-29T04:26:48.277Z,4.01
2022-11-29T04:29:37.415Z,4.07
2022-11-29T04:32:27.499Z,4.05
2022-11-29T04:35:11.320Z,4.10
2022-11-29T04:38:12.342Z,4.06
2022-11-29T04:40:57.290Z,4.07
2022-11-29T04:43:52.799Z,4.09
2022-11-29T04:46:37.704Z,4.01
2022-11-29T04:49:41.143Z,4.19
2022-11-29T04:52:35.893Z,4.11
2022-11-29T04:55:22.729Z,4.05
2022-11-29T04:58:01.165Z,4.03
2022-11-29T05:00:36.281Z,4.19
2022-11-29T05:03:12.685Z,4.26
2022-11-29T05:05:48.703Z,4.19
2022-11-29T05:08:29.417Z,4.06
2022-11-29T05:11:06.755Z,4.06
2022-11-29T05:13:43.991Z,4.13
2022-11-29T05:16:27.392Z,4.13
2022-11-29T05:19:30.577Z,4.11
2022-11-29T05:22:10.211Z,4.19
2022-11-29T05:24:53.721Z,4.14
2022-11-29T05:27:34.443Z,4.13
2022-11-29T05:30:07.152Z,4.19
2022-11-29T05:32:39.459Z,4.18
2022-11-29T05:35:33.962Z,4.10
2022-11-29T05:38:11.452Z,4.23
2022-11-29T05:40:47.174Z,4.19
2022-11-29T05:43:31.156Z,4.17
2022-11-29T05:46:07.013Z,4.28
2022-11-29T05:48:45.323Z,4.28
2022-11-29T05:51:22.398Z,4.19
2022-11-29T05:54:01.641Z,4.24
2022-11-29T05:56:41.681Z,4.31
2022-11-29T05:59:13.555Z,4.22
2022-11-29T06:01:49.555Z,4.28
2022-11-29T06:04:24.452Z,4.20
2022-11-29T06:07:03.735Z,4.22
2022-11-29T06:09:38.038Z,4.27
2022-11-29T06:12:16.998Z,4.27
2022-11-29T06:15:13.737Z,4.35
2022-11-29T06:18:03.275Z,4.35
2022-11-29T06:20:55.476Z,4.34
2022-11-29T06:23:54.400Z,4.39
2022-11-29T06:27:02.310Z,4.37
2022-11-29T06:29:39.282Z,4.32
2022-11-29T06:32:19.750Z,4.40
2022-11-29T06:34:55.064Z,4.45
2022-11-29T06:37:27.866Z,4.44
2022-11-29T06:39:57.466Z,4.49
2022-11-29T06:42:25.230Z,4.35
2022-11-29T06:44:53.428Z,4.29
2022-11-29T06:47:29.058Z,4.31
2022-11-29T06:50:04.063Z,4.46
2022-11-29T06:52:43.437Z,4.37
2022-11-29T06:55:19.026Z,4.49
2022-11-29T06:58:04.123Z,4.47
2022-11-29T07:00:41.894Z,4.44
2022-11-29T07:03:34.480Z,4.40
2022-11-29T07:06:10.040Z,4.47
2022-11-29T07:08:38.959Z,4.50
2022-11-29T07:11:10.486Z,4.55
2022-11-29T07:13:38.869Z,4.46
2022-11-29T07:16:17.840Z,4.61
2022-11-29T07:18:53.220Z,4.62
2022-11-29T07:21:27.315Z,4.53
2022-11-29T07:24:03.744Z,4.52
2022-11-29T07:26:40.438Z,4.49
2022-11-29T07:29:24.082Z,4.57
2022-11-29T07:32:04.446Z,4.62
2022-11-29T07:34:41.338Z,4.60
2022-11-29T07:37:17.695Z,4.52
2022-11-29T07:39:56.016Z,4.48
2022-11-29T07:42:32.721Z,4.63
2022-11-29T07:45:08.793Z,4.68
2022-11-29T07:47:36.519Z,4.63
2022-11-29T07:50:04.398Z,4.66
2022-11-29T07:52:32.119Z,4.61
2022-11-29T07:54:59.866Z,4.71
2022-11-29T07:57:29.061Z,4.69
2022-11-29T07:59:56.743Z,4.82
2022-11-29T08:02:28.862Z,4.78
2022-11-29T08:04:56.792Z,4.67
2022-11-29T08:07:25.086Z,4.68
2022-11-29T08:09:52.912Z,4.82
2022-11-29T08:12:20.801Z,4.85
2022-11-29T08:14:49.835Z,4.75
2022-11-29T08:17:18.668Z,4.78
2022-11-29T08:19:46.464Z,4.73
2022-11-29T08:22:14.253Z,4.77
2022-11-29T08:24:41.978Z,4.76
2022-11-29T08:27:09.742Z,4.80
2022-11-29T08:29:37.481Z,4.80
2022-11-29T08:32:07.134Z,4.70
2022-11-29T08:34:34.952Z,4.76
2022-11-29T08:37:02.637Z,4.71
2022-11-29T08:39:30.474Z,4.72
2022-11-29T08:41:58.596Z,4.75
2022-11-29T08:44:26.312Z,4.68
2022-11-29T08:47:11.734Z,4.74
2022-11-29T08:50:01.109Z,4.58
2022-11-29T08:52:46.086Z,4.64
2022-11-29T08:55:13.886Z,4.75
2022-11-29T08:57:41.706Z,4.77
2022-11-29T09:00:10.595Z,4.75
2022-11-29T09:02:38.680Z,4.88
2022-11-29T09:05:09.444Z,4.85
2022-11-29T09:07:37.458Z,4.85
2022-11-29T09:10:08.110Z,4.79
2022-11-29T09:12:36.608Z,4.99
2022-11-29T09:15:04.978Z,5.04
2022-11-29T09:17:32.933Z,4.85
2022-11-29T09:20:00.761Z,4.82
2022-11-29T09:22:29.838Z,4.88
2022-11-29T09:24:57.590Z,4.98
2022-11-29T09:27:25.234Z,5.01
2022-11-29T09:29:52.921Z,5.01
2022-11-29T09:32:20.536Z,4.97
2022-11-29T09:34:48.539Z,4.93
2022-11-29T09:37:16.337Z,5.01
2022-11-29T09:39:45.662Z,5.03
2022-11-29T09:42:28.008Z,5.06
2022-11-29T09:45:04.587Z,5.16
2022-11-29T09:47:56.258Z,5.21
2022-11-29T09:50:32.400Z,5.09
2022-11-29T09:53:18.637Z,5.10
2022-11-29T09:56:01.052Z,5.08
2022-11-29T09:58:33.933Z,5.11
2022-11-29T10:01:06.399Z,5.04
2022-11-29T10:03:39.312Z,4.95
2022-11-29T10:06:14.347Z,5.06
2022-11-29T10:08:49.291Z,5.11
2022-11-29T10:11:23.173Z,5.15
2022-11-29T10:13:54.836Z,5.10
2022-11-29T10:16:29.469Z,5.16
2022-11-29T10:19:06.060Z,5.10
2022-11-29T10:21:37.521Z,5.06
2022-11-29T10:24:10.835Z,5.23
2022-11-29T10:26:39.921Z,5.27
2022-11-29T10:29:07.690Z,5.31
2022-11-29T10:31:40.125Z,5.30
2022-11-29T10:34:14.395Z,5.26
2022-11-29T10:36:45.517Z,5.20
2022-11-29T10:39:17.591Z,5.07
2022-11-29T10:41:46.943Z,5.15
2022-11-29T10:44:15.987Z,5.19
2022-11-29T10:46:43.986Z,5.10
2022-11-29T10:49:15.463Z,5.02
2022-11-29T10:51:43.616Z,5.12
2022-11-29T10:54:22.625Z,5.08
2022-11-29T10:56:53.115Z,5.02
2022-11-29T10:59:23.352Z,5.19
2022-11-29T11:01:51.877Z,5.22
2022-11-29T11:04:28.773Z,5.28
2022-11-29T11:07:00.961Z,5.26
2022-11-29T11:09:34.206Z,5.37
2022-11-29T11:12:06.869Z,5.39
2022-11-29T11:14:37.512Z,5.24
2022-11-29T11:17:21.834Z,5.32
2022-11-29T11:19:57.992Z,5.30
2022-11-29T11:22:27.113Z,5.37
2022-11-29T11:25:01.032Z,5.42
2022-11-29T11:27:32.443Z,5.48
2022-11-29T11:30:01.411Z,5.54
2022-11-29T11:32:29.290Z,5.45
2022-11-29T11:34:59.125Z,5.49
2022-11-29T11:37:28.587Z,5.36
2022-11-29T11:39:58.410Z,5.40
2022-11-29T11:42:38.269Z,5.41
2022-11-29T11:45:24.200Z,5.41
2022-11-29T11:47:53.923Z,5.50
2022-11-29T11:50:29.931Z,5.55
2022-11-29T11:52:59.379Z,5.52
2022-11-29T11:55:33.237Z,5.57
2022-11-29T11:58:09.716Z,5.56
2022-11-29T12:03:36.895Z,5.77
2022-11-29T12:06:18.706Z,5.52
2022-11-29T12:08:48.497Z,5.68
2022-11-29T12:11:19.380Z,5.63
2022-11-29T12:13:51.840Z,5.60
2022-11-29T12:16:28.525Z,5.62
2022-11-29T12:19:00.401Z,5.57
2022-11-29T12:21:34.470Z,5.64
2022-11-29T12:24:09.278Z,5.70
2022-11-29T12:26:57.672Z,5.84
2022-11-29T12:29:30.280Z,5.69
2022-11-29T12:32:18.985Z,5.68
2022-11-29T12:35:02.959Z,5.72
2022-11-29T12:37:36.698Z,5.57
2022-11-29T12:40:12.158Z,5.72
2022-11-29T12:42:49.383Z,5.75
2022-11-29T12:45:30.203Z,5.85
2022-11-29T12:48:10.704Z,5.87
2022-11-29T12:50:47.427Z,5.82
2022-11-29T12:53:28.550Z,5.98
2022-11-29T12:56:08.356Z,5.95
2022-11-29T12:58:46.655Z,5.93
2022-11-29T13:01:26.122Z,6.03
2022-11-29T13:04:00.244Z,6.01
2022-11-29T13:06:35.566Z,5.96
2022-11-29T13:09:47.623Z,5.91
2022-11-29T13:12:22.053Z,5.97
2022-11-29T13:14:56.729Z,5.92
2022-11-29T13:17:32.531Z,5.94
2022-11-29T13:20:11.522Z,5.91
2022-11-29T13:22:47.537Z,5.87
2022-11-29T13:25:19.511Z,6.00
2022-11-29T13:27:54.843Z,5.95
2022-11-29T13:30:23.021Z,5.94
2022-11-29T13:32:58.487Z,5.97
2022-11-29T13:35:37.268Z,5.99
2022-11-29T13:38:14.513Z,6.03
2022-11-29T13:40:55.370Z,6.01
2022-11-29T13:43:30.784Z,6.03
2022-11-29T13:46:08.319Z,5.96
2022-11-29T13:48:47.807Z,6.00
2022-11-29T13:51:26.809Z,5.99
2022-11-29T13:53:56.072Z,5.96
2022-11-29T13:56:36.629Z,5.92
2022-11-29T13:59:08.787Z,5.93
2022-11-29T14:01:48.318Z,5.94
2022-11-29T14:04:25.907Z,5.92
2022-11-29T14:07:14.287Z,5.89
2022-11-29T14:09:51.167Z,5.88
2022-11-29T14:12:35.789Z,5.97
2022-11-29T14:15:17.363Z,5.95
2022-11-29T14:17:56.602Z,5.94
2022-11-29T14:20:58.174Z,5.91
2022-11-29T14:23:36.317Z,5.85
2022-11-29T14:26:28.731Z,5.92
2022-11-29T14:28:57.927Z,5.91
2022-11-29T14:31:52.382Z,5.98
2022-11-29T14:34:46.073Z,5.87
2022-11-29T14:37:29.789Z,5.92
2022-11-29T14:40:02.369Z,5.94
2022-11-29T14:42:30.696Z,5.96
2022-11-29T14:45:01.547Z,5.98
2022-11-29T14:47:35.038Z,5.93
2022-11-29T14:50:07.420Z,5.83
2022-11-29T14:52:38.910Z,5.77
2022-11-29T14:55:28.910Z,5.85
2022-11-29T14:58:07.677Z,5.91
2022-11-29T15:00:55.268Z,5.85
2022-11-29T15:03:31.729Z,5.85
2022-11-29T15:06:02.095Z,5.88
2022-11-29T15:08:35.584Z,5.82
2022-11-29T15:11:14.532Z,5.92
2022-11-29T15:13:56.039Z,5.77
2022-11-29T15:16:36.445Z,5.85
2022-11-29T15:19:36.589Z,5.81
2022-11-29T15:22:09.754Z,5.87
2022-11-29T15:24:51.854Z,5.84
2022-11-29T15:27:21.526Z,5.80
2022-11-29T15:29:50.463Z,5.83
2022-11-29T15:32:23.960Z,5.85
2022-11-29T15:34:53.832Z,5.77
2022-11-29T15:37:27.113Z,5.85
2022-11-29T15:40:05.799Z,5.74
2022-11-29T15:42:42.548Z,5.86
2022-11-29T15:45:32.888Z,5.79
2022-11-29T15:48:16.728Z,5.77
2022-11-29T15:50:51.029Z,5.82
2022-11-29T15:53:23.444Z,5.83
2022-11-29T15:55:55.130Z,5.83
2022-11-29T15:58:26.317Z,5.86
2022-11-29T16:00:55.311Z,5.77
2022-11-29T16:03:26.224Z,5.84
2022-11-29T16:06:02.585Z,5.89
2022-11-29T16:08:34.124Z,5.87
2022-11-29T16:11:02.188Z,5.91
2022-11-29T16:13:35.631Z,5.80
2022-11-29T16:16:07.748Z,5.77
2022-11-29T16:18:36.056Z,5.75
2022-11-29T16:21:06.411Z,5.77
2022-11-29T16:23:35.291Z,5.73
2022-11-29T16:26:14.232Z,5.73
2022-11-29T16:28:45.434Z,5.81
2022-11-29T16:31:18.100Z,5.79
2022-11-29T16:33:47.436Z,5.75
2022-11-29T16:36:18.285Z,5.78
2022-11-29T16:38:47.868Z,5.83
2022-11-29T16:41:24.771Z,5.76
2022-11-29T16:43:57.441Z,5.77
2022-11-29T16:46:34.343Z,5.76
2022-11-29T16:49:04.269Z,5.79
2022-11-29T16:51:39.740Z,5.72
2022-11-29T16:54:23.652Z,5.67
2022-11-29T16:56:52.822Z,5.74
2022-11-29T16:59:27.370Z,5.71
2022-11-29T17:01:56.467Z,5.73
2022-11-29T17:04:25.002Z,5.67
2022-11-29T17:06:53.422Z,5.54
2022-11-29T17:09:24.986Z,5.63
2022-11-29T17:11:53.320Z,5.60
2022-11-29T17:14:22.800Z,5.60
2022-11-29T17:16:51.854Z,5.57
2022-11-29T17:19:23.992Z,5.48
2022-11-29T17:21:52.701Z,5.50
2022-11-29T17:24:23.168Z,5.55
2022-11-29T17:26:51.626Z,5.45
2022-11-29T17:29:20.098Z,5.53
2022-11-29T17:31:50.523Z,5.55
2022-11-29T17:34:18.805Z,5.54
2022-11-29T17:36:46.694Z,5.49
2022-11-29T17:39:15.570Z,5.55
2022-11-29T17:41:43.548Z,5.49
2022-11-29T17:44:11.412Z,5.48
2022-11-29T17:46:39.408Z,5.51
2022-11-29T17:49:10.303Z,5.40
2022-11-29T17:51:55.462Z,5.43
2022-11-29T17:54:23.760Z,5.33
2022-11-29T17:56:51.863Z,5.36
2022-11-29T17:59:20.446Z,5.33
2022-11-29T18:01:48.477Z,5.28
2022-11-29T18:04:19.259Z,5.29
2022-11-29T18:06:50.226Z,5.34
2022-11-29T18:09:19.485Z,5.37
2022-11-29T18:11:49.925Z,5.51
2022-11-29T18:14:20.757Z,5.37
2022-11-29T18:16:48.937Z,5.35
2022-11-29T18:19:19.939Z,5.34
2022-11-29T18:21:47.707Z,5.28
2022-11-29T18:24:15.672Z,5.36
2022-11-29T18:26:43.573Z,5.36
2022-11-29T18:29:11.407Z,5.35
2022-11-29T18:31:41.658Z,5.29
2022-11-29T18:34:11.058Z,5.32
2022-11-29T18:36:43.395Z,5.25
2022-11-29T18:39:14.961Z,5.25
2022-11-29T18:41:43.753Z,5.20
2022-11-29T18:44:13.757Z,5.19
2022-11-29T18:46:47.455Z,5.27
2022-11-29T18:49:16.861Z,5.20
2022-11-29T18:51:46.996Z,5.31
2022-11-29T18:54:15.838Z,5.35
2022-11-29T18:56:44.372Z,5.45
2022-11-29T18:59:16.462Z,5.51
2022-11-29T19:01:46.181Z,5.49
2022-11-29T19:04:15.888Z,5.36
2022-11-29T19:06:45.078Z,5.38
2022-11-29T19:09:14.754Z,5.37
2022-11-29T19:11:42.891Z,5.31
2022-11-29T19:14:12.879Z,5.23
2022-11-29T19:16:42.437Z,5.19
2022-11-29T19:19:10.216Z,5.19
2022-11-29T19:21:39.610Z,5.22
2022-11-29T19:24:14.832Z,5.22
2022-11-29T19:26:44.793Z,5.18
2022-11-29T19:29:13.141Z,5.26
2022-11-29T19:31:41.244Z,5.31
2022-11-29T19:34:09.177Z,5.22
2022-11-29T19:36:42.597Z,5.24
2022-11-29T19:39:13.948Z,5.20
2022-11-29T19:41:43.298Z,5.20
2022-11-29T19:44:11.653Z,5.05
2022-11-29T19:46:41.636Z,5.11
2022-11-29T19:49:10.201Z,5.17
2022-11-29T19:51:38.570Z,5.20
2022-11-29T19:54:08.227Z,5.22
2022-11-29T19:56:38.075Z,5.18
2022-11-29T19:59:07.412Z,5.25
2022-11-29T20:01:40.711Z,5.22
2022-11-29T20:04:09.509Z,5.11
2022-11-29T20:06:37.563Z,5.12
2022-11-29T20:09:06.365Z,5.13
2022-11-29T20:11:34.126Z,5.16
2022-11-29T20:14:05.308Z,5.11
2022-11-29T20:16:33.801Z,5.18
2022-11-29T20:19:01.765Z,5.17
2022-11-29T20:21:31.192Z,5.18
2022-11-29T20:24:00.498Z,5.20
2022-11-29T20:26:29.275Z,5.21
2022-11-29T20:28:57.051Z,5.12
2022-11-29T20:31:26.574Z,5.19
2022-11-29T20:33:57.304Z,5.18
2022-11-29T20:36:40.598Z,5.08
2022-11-29T20:39:17.581Z,5.02
2022-11-29T20:41:53.875Z,5.00
2022-11-29T20:44:26.678Z,4.99
2022-11-29T20:46:56.237Z,5.04
2022-11-29T20:49:24.486Z,5.06
2022-11-29T20:51:56.800Z,5.09
2022-11-29T20:54:24.539Z,5.07
2022-11-29T20:56:52.262Z,5.08
2022-11-29T20:59:19.970Z,4.99
2022-11-29T21:01:47.760Z,5.10
2022-11-29T21:04:22.903Z,5.12
2022-11-29T21:06:51.272Z,5.06
2022-11-29T21:09:18.956Z,5.01
2022-11-29T21:11:47.083Z,5.03
2022-11-29T21:14:15.489Z,5.02
2022-11-29T21:16:43.647Z,4.82
2022-11-29T21:19:17.087Z,4.98
2022-11-29T21:21:58.704Z,4.94
2022-11-29T21:24:40.704Z,5.03
2022-11-29T21:27:14.737Z,4.90
2022-11-29T21:29:43.093Z,4.94
2022-11-29T21:32:21.739Z,4.90
2022-11-29T21:34:50.175Z,4.89
2022-11-29T21:37:21.547Z,5.00
2022-11-29T21:39:51.483Z,5.04
2022-11-29T21:42:19.486Z,5.00
2022-11-29T21:44:47.558Z,5.10
2022-11-29T21:47:15.901Z,4.99
2022-11-29T21:49:43.687Z,5.04
2022-11-29T21:52:19.020Z,5.05
2022-11-29T21:54:51.704Z,5.11
2022-11-29T21:57:19.468Z,5.06
2022-11-29T21:59:47.275Z,5.13
2022-11-29T22:02:15.193Z,5.08
2022-11-29T22:04:43.788Z,5.10
2022-11-29T22:07:11.718Z,5.12
2022-11-29T22:09:39.708Z,5.14
2022-11-29T22:12:32.539Z,5.17
2022-11-29T22:14:57.516Z,5.21
2022-11-29T22:17:25.387Z,5.17
2022-11-29T22:19:53.053Z,5.11
2022-11-29T22:22:20.871Z,5.14
2022-11-29T22:24:48.855Z,5.12
2022-11-29T22:27:18.585Z,5.16
2022-11-29T22:29:46.423Z,5.18
2022-11-29T22:32:14.187Z,5.20
2022-11-29T22:34:42.202Z,5.08
2022-11-29T22:37:12.427Z,5.08
2022-11-29T22:39:40.168Z,5.13
2022-11-29T22:42:08.092Z,5.03
2022-11-29T22:44:37.322Z,5.10
2022-11-29T22:47:05.124Z,5.11
2022-11-29T22:49:33.318Z,5.19
2022-11-29T22:52:01.180Z,5.16
2022-11-29T22:54:28.962Z,5.10
2022-11-29T22:56:56.754Z,5.18
2022-11-29T22:59:24.545Z,5.08
2022-11-29T23:01:53.740Z,5.12
2022-11-29T23:04:21.561Z,5.10
2022-11-29T23:06:49.458Z,5.03
2022-11-29T23:09:21.663Z,5.08
2022-11-29T23:11:52.108Z,5.06
2022-11-29T23:14:20.456Z,5.07
2022-11-29T23:16:48.407Z,5.16
2022-11-29T23:19:18.338Z,5.11
2022-11-29T23:21:46.532Z,5.08
2022-11-29T23:24:15.131Z,5.04
2022-11-29T23:26:45.384Z,5.07
2022-11-29T23:29:15.314Z,5.09
2022-11-29T23:31:43.641Z,5.09
2022-11-29T23:34:11.533Z,5.11
2022-11-29T23:36:40.933Z,5.12
2022-11-29T23:39:08.986Z,5.16
2022-11-29T23:41:37.927Z,5.19
2022-11-29T23:44:06.567Z,5.02
2022-11-29T23:46:37.237Z,4.90
2022-11-29T23:49:05.066Z,5.01
2022-11-29T23:51:32.793Z,4.93
2022-11-29T23:54:01.899Z,4.92
2022-11-29T23:56:35.036Z,4.84
2022-11-29T23:59:02.691Z,4.80
